Time;durP1;ratioP1;P1;durP2;ratioP2;P2;SDS_P1;SDS_P2;PMS_P1;PMS_P2;Temp;Humidity;BMP_temperature;BMP_pressure;BME280_temperature;BME280_humidity;BME280_pressure;Samples;Min_cycle;Max_cycle;Signal;HPM_P1;HPM_P2
2022/11/05 00:11:06;;;;;;;9.18;3.85;;;;;;;;;;4992928;28;20312;-61
2022/11/05 00:19:06;;;;;;;9.93;4.00;;;;;;;;;;4993595;28;20224;-61
2022/11/05 00:27:00;;;;;;;11.60;4.50;;;;;;;;;;4993195;28;20255;-61
2022/11/05 00:29:25;;;;;;;10.60;3.83;;;;;;;;;;4992125;28;20586;-61
2022/11/05 00:31:51;;;;;;;10.20;4.50;;;;;;;;;;5008432;28;20213;-61
2022/11/05 00:34:16;;;;;;;9.30;4.60;;;;;;;;;;4992701;28;20209;-61
2022/11/05 00:36:41;;;;;;;10.50;4.88;;;;;;;;;;4992532;28;20213;-61
2022/11/05 00:39:06;;;;;;;9.27;4.32;;;;;;;;;;4992760;28;20209;-61
2022/11/05 00:41:32;;;;;;;10.65;4.18;;;;;;;;;;4993075;28;20681;-61
2022/11/05 00:46:41;;;;;;;8.38;4.30;;;;;;;;;;4979051;28;20627;-61
2022/11/05 00:49:30;;;;;;;8.75;3.97;;;;;;;;;;4990018;28;20221;-61
2022/11/05 00:54:53;;;;;;;8.98;3.60;;;;;;;;;;4992511;28;20618;-61
2022/11/05 00:57:18;;;;;;;8.93;3.42;;;;;;;;;;4992288;28;20217;-61
2022/11/05 00:59:43;;;;;;;10.95;3.95;;;;;;;;;;4992417;28;20225;-60
2022/11/05 01:02:08;;;;;;;7.00;3.42;;;;;;;;;;4992431;28;20240;-61
2022/11/05 01:04:34;;;;;;;6.25;3.63;;;;;;;;;;4992108;28;20237;-60
2022/11/05 01:06:59;;;;;;;7.95;3.75;;;;;;;;;;4992857;28;20229;-60
2022/11/05 01:09:24;;;;;;;7.85;3.72;;;;;;;;;;5007502;28;20587;-61
2022/11/05 01:11:50;;;;;;;6.28;2.95;;;;;;;;;;4991921;28;20228;-61
2022/11/05 01:14:15;;;;;;;7.50;3.55;;;;;;;;;;4992403;28;20216;-61
2022/11/05 01:16:40;;;;;;;8.23;3.72;;;;;;;;;;4992516;28;20326;-61
2022/11/05 01:19:06;;;;;;;6.00;3.22;;;;;;;;;;5006789;28;20218;-61
2022/11/05 01:21:31;;;;;;;7.22;3.72;;;;;;;;;;4992758;28;20205;-61
2022/11/05 01:23:57;;;;;;;7.35;3.22;;;;;;;;;;4992861;28;20213;-61
2022/11/05 01:26:22;;;;;;;9.80;3.70;;;;;;;;;;4991347;28;20693;-61
2022/11/05 01:28:53;;;;;;;7.30;3.50;;;;;;;;;;4994069;28;20213;-61
2022/11/05 01:31:19;;;;;;;6.60;3.08;;;;;;;;;;4995670;28;20213;-61
2022/11/05 01:33:44;;;;;;;7.70;3.10;;;;;;;;;;4995713;28;20220;-61
2022/11/05 01:36:09;;;;;;;5.88;3.03;;;;;;;;;;4995783;28;20232;-61
2022/11/05 01:38:35;;;;;;;8.23;3.25;;;;;;;;;;4996527;28;20355;-60
2022/11/05 01:41:00;;;;;;;9.68;3.08;;;;;;;;;;5010224;28;20224;-62
2022/11/05 01:43:25;;;;;;;7.65;2.97;;;;;;;;;;4996183;28;20220;-61
2022/11/05 01:45:52;;;;;;;6.63;2.92;;;;;;;;;;4995820;28;20242;-61
2022/11/05 01:48:19;;;;;;;7.38;2.90;;;;;;;;;;4994858;28;20220;-61
2022/11/05 01:50:48;;;;;;;7.43;2.50;;;;;;;;;;4994948;28;20224;-61
2022/11/05 01:53:14;;;;;;;9.05;2.92;;;;;;;;;;4994281;28;20228;-61
2022/11/05 01:55:42;;;;;;;7.35;2.90;;;;;;;;;;4994083;28;20224;-61
2022/11/05 01:58:08;;;;;;;4.85;2.53;;;;;;;;;;4994149;28;20244;-61
2022/11/05 02:00:33;;;;;;;4.65;2.35;;;;;;;;;;4995855;28;20684;-61
2022/11/05 02:02:59;;;;;;;7.57;2.35;;;;;;;;;;4995050;28;20245;-61
2022/11/05 02:05:24;;;;;;;6.47;2.22;;;;;;;;;;4995413;28;20221;-60
2022/11/05 02:07:49;;;;;;;7.15;2.72;;;;;;;;;;4995004;28;20217;-61
2022/11/05 02:10:16;;;;;;;6.95;2.17;;;;;;;;;;4995263;28;20201;-61
2022/11/05 02:12:42;;;;;;;5.28;2.70;;;;;;;;;;4995675;28;20205;-61
2022/11/05 02:15:10;;;;;;;7.35;2.38;;;;;;;;;;4994500;28;20209;-61
2022/11/05 02:17:38;;;;;;;6.75;2.90;;;;;;;;;;5010466;28;20307;-61
2022/11/05 02:20:14;;;;;;;4.53;2.00;;;;;;;;;;5010297;28;20574;-61
2022/11/05 02:22:58;;;;;;;6.57;2.33;;;;;;;;;;5009627;28;20758;-61
2022/11/05 02:25:36;;;;;;;6.10;2.23;;;;;;;;;;4995149;28;20252;-61
2022/11/05 02:28:14;;;;;;;5.68;2.42;;;;;;;;;;4994958;28;20598;-61
2022/11/05 02:30:40;;;;;;;6.32;2.83;;;;;;;;;;5009929;28;20217;-61
2022/11/05 02:33:08;;;;;;;5.45;2.05;;;;;;;;;;4994583;28;20308;-61
2022/11/05 02:35:38;;;;;;;5.10;2.20;;;;;;;;;;4995512;28;20321;-61
2022/11/05 02:38:17;;;;;;;7.13;2.40;;;;;;;;;;5009110;28;20221;-61
2022/11/05 02:40:47;;;;;;;8.80;2.70;;;;;;;;;;4995288;28;20224;-61
2022/11/05 02:43:30;;;;;;;5.35;2.05;;;;;;;;;;4992573;28;20292;-61
2022/11/05 02:46:02;;;;;;;8.70;2.90;;;;;;;;;;4993866;28;20232;-61
2022/11/05 02:48:33;;;;;;;4.80;2.17;;;;;;;;;;4993253;28;20304;-61
2022/11/05 02:51:11;;;;;;;6.53;1.92;;;;;;;;;;5009411;28;20214;-61
2022/11/05 02:53:39;;;;;;;6.68;2.30;;;;;;;;;;5009573;28;20224;-61
2022/11/05 02:56:07;;;;;;;7.20;2.20;;;;;;;;;;4994612;28;20264;-61
2022/11/05 02:58:32;;;;;;;4.97;2.30;;;;;;;;;;5008974;28;20308;-61
2022/11/05 03:00:59;;;;;;;3.80;2.20;;;;;;;;;;4994999;28;20292;-61
2022/11/05 03:03:35;;;;;;;5.13;2.00;;;;;;;;;;4994067;28;20304;-61
2022/11/05 03:06:09;;;;;;;6.40;2.10;;;;;;;;;;4993667;28;20228;-61
2022/11/05 03:08:48;;;;;;;9.68;2.33;;;;;;;;;;5009688;28;20216;-61
2022/11/05 03:11:15;;;;;;;6.53;2.60;;;;;;;;;;4993253;28;20291;-61
2022/11/05 03:13:52;;;;;;;5.53;2.65;;;;;;;;;;5009571;28;20217;-61
2022/11/05 03:16:20;;;;;;;6.55;2.35;;;;;;;;;;4993986;28;20669;-61
2022/11/05 03:18:47;;;;;;;4.90;2.47;;;;;;;;;;5008601;28;20220;-61
2022/11/05 03:21:29;;;;;;;6.93;2.55;;;;;;;;;;5009018;28;20707;-61
2022/11/05 03:23:58;;;;;;;5.30;3.08;;;;;;;;;;5009326;28;20243;-61
2022/11/05 03:26:30;;;;;;;4.22;2.60;;;;;;;;;;5008133;28;20279;-61
2022/11/05 03:28:57;;;;;;;7.37;3.70;;;;;;;;;;4994263;28;20305;-61
2022/11/05 03:31:23;;;;;;;10.17;4.00;;;;;;;;;;5009042;28;20247;-61
2022/11/05 03:33:48;;;;;;;8.18;4.20;;;;;;;;;;5008242;28;20248;-61
2022/11/05 03:36:15;;;;;;;5.72;3.35;;;;;;;;;;5008910;28;20577;-61
2022/11/05 03:38:41;;;;;;;6.85;3.95;;;;;;;;;;5008891;28;20220;-61
2022/11/05 03:41:07;;;;;;;6.70;4.55;;;;;;;;;;5007996;28;20213;-61
2022/11/05 03:43:34;;;;;;;11.80;5.65;;;;;;;;;;5009140;28;20244;-61
2022/11/05 03:46:07;;;;;;;9.30;5.77;;;;;;;;;;4993830;28;20636;-61
2022/11/05 03:48:32;;;;;;;11.48;5.30;;;;;;;;;;4988651;28;20586;-61
2022/11/05 03:50:58;;;;;;;9.48;5.47;;;;;;;;;;4989027;28;20304;-61
2022/11/05 03:53:25;;;;;;;9.07;5.40;;;;;;;;;;4977623;28;20228;-61
2022/11/05 03:55:53;;;;;;;6.95;4.32;;;;;;;;;;4982014;28;20744;-61
2022/11/05 03:58:19;;;;;;;8.05;4.68;;;;;;;;;;4983267;28;20233;-61
2022/11/05 04:00:44;;;;;;;8.90;4.40;;;;;;;;;;4981544;28;20251;-61
2022/11/05 04:03:09;;;;;;;7.70;4.68;;;;;;;;;;4983072;28;20221;-61
2022/11/05 04:05:35;;;;;;;10.18;5.28;;;;;;;;;;4979015;28;20601;-61
2022/11/05 04:13:28;;;;;;;8.68;5.00;;;;;;;;;;4976380;28;20278;-61
2022/11/05 04:18:37;;;;;;;7.78;4.20;;;;;;;;;;4977025;28;20228;-61
2022/11/05 04:26:31;;;;;;;10.27;6.07;;;;;;;;;;4976675;28;20240;-61
2022/11/05 04:31:40;;;;;;;8.85;5.18;;;;;;;;;;4970129;28;20767;-61
2022/11/05 04:34:05;;;;;;;9.07;4.40;;;;;;;;;;4969660;28;20257;-61
2022/11/05 04:36:31;;;;;;;9.00;4.50;;;;;;;;;;4975494;28;20213;-61
2022/11/05 04:38:56;;;;;;;8.73;4.28;;;;;;;;;;4976027;28;20208;-61
2022/11/05 04:41:21;;;;;;;6.23;4.47;;;;;;;;;;4976423;28;20223;-61
2022/11/05 04:43:46;;;;;;;6.78;3.97;;;;;;;;;;4976064;28;20692;-61
2022/11/05 04:46:12;;;;;;;8.45;4.50;;;;;;;;;;4991100;28;20877;-61
2022/11/05 04:48:37;;;;;;;7.47;5.00;;;;;;;;;;4975914;28;20278;-61
2022/11/05 04:51:02;;;;;;;6.22;4.53;;;;;;;;;;4971616;28;20257;-61
2022/11/05 04:53:28;;;;;;;7.28;4.63;;;;;;;;;;4970311;28;20283;-61
2022/11/05 04:55:53;;;;;;;9.57;5.07;;;;;;;;;;4971807;28;20287;-61
2022/11/05 04:58:18;;;;;;;8.50;4.60;;;;;;;;;;4999108;28;20233;-61
2022/11/05 05:00:44;;;;;;;7.90;4.55;;;;;;;;;;4976117;28;20214;-61
2022/11/05 05:03:09;;;;;;;7.10;4.53;;;;;;;;;;4967727;28;20576;-61
2022/11/05 05:05:34;;;;;;;8.43;4.70;;;;;;;;;;4971404;28;20221;-61
2022/11/05 05:08:01;;;;;;;7.40;4.90;;;;;;;;;;4972063;28;20312;-61
2022/11/05 05:10:26;;;;;;;8.45;4.72;;;;;;;;;;4980852;28;20232;-61
2022/11/05 05:12:51;;;;;;;9.13;4.67;;;;;;;;;;4990962;28;20247;-61
2022/11/05 05:15:16;;;;;;;7.07;4.18;;;;;;;;;;4990776;28;20220;-61
2022/11/05 05:17:42;;;;;;;9.43;4.63;;;;;;;;;;4990867;28;20213;-61
2022/11/05 05:22:52;;;;;;;8.90;4.57;;;;;;;;;;4979563;28;20307;-61
2022/11/05 05:25:17;;;;;;;7.93;4.50;;;;;;;;;;4979220;28;20311;-61
2022/11/05 05:27:42;;;;;;;9.20;4.93;;;;;;;;;;4980917;28;20832;-61
2022/11/05 05:30:08;;;;;;;7.72;4.18;;;;;;;;;;4979788;28;20248;-61
2022/11/05 05:32:33;;;;;;;8.32;5.10;;;;;;;;;;4979607;28;20601;-61
2022/11/05 05:34:58;;;;;;;10.30;4.87;;;;;;;;;;4980105;28;20681;-61
2022/11/05 05:37:24;;;;;;;8.47;5.30;;;;;;;;;;4975881;28;20225;-61
2022/11/05 05:39:49;;;;;;;9.23;5.00;;;;;;;;;;4972253;28;20249;-61
2022/11/05 05:42:14;;;;;;;6.07;4.00;;;;;;;;;;4972456;28;20296;-62
2022/11/05 05:44:39;;;;;;;7.38;4.43;;;;;;;;;;4977043;28;20268;-61
2022/11/05 05:47:05;;;;;;;9.73;5.07;;;;;;;;;;4979308;28;20223;-61
2022/11/05 05:49:30;;;;;;;10.07;5.67;;;;;;;;;;4979915;28;20224;-61
2022/11/05 05:51:55;;;;;;;7.20;4.37;;;;;;;;;;4979533;28;20244;-61
2022/11/05 05:54:21;;;;;;;7.10;4.38;;;;;;;;;;4977874;28;20228;-61
2022/11/05 05:56:47;;;;;;;6.25;4.22;;;;;;;;;;4979936;28;20856;-61
2022/11/05 05:59:12;;;;;;;11.95;4.93;;;;;;;;;;4976633;28;20760;-61
2022/11/05 06:01:37;;;;;;;9.98;5.43;;;;;;;;;;4970858;28;20224;-61
2022/11/05 06:04:02;;;;;;;7.43;5.10;;;;;;;;;;4971618;28;20246;-62
2022/11/05 06:06:28;;;;;;;9.90;4.93;;;;;;;;;;4972536;28;20633;-61
2022/11/05 06:08:53;;;;;;;10.33;5.00;;;;;;;;;;4984261;28;20218;-62
2022/11/05 06:11:18;;;;;;;8.07;4.80;;;;;;;;;;4982312;28;20209;-62
2022/11/05 06:13:44;;;;;;;12.80;5.65;;;;;;;;;;4984926;28;20227;-61
2022/11/05 06:16:09;;;;;;;9.90;5.47;;;;;;;;;;4982580;28;20684;-61
2022/11/05 06:18:35;;;;;;;9.38;4.50;;;;;;;;;;4984798;28;20755;-61
2022/11/05 06:21:02;;;;;;;8.20;5.10;;;;;;;;;;4983314;28;20568;-61
2022/11/05 06:23:28;;;;;;;9.60;6.10;;;;;;;;;;4971655;28;20224;-61
2022/11/05 06:25:53;;;;;;;11.35;6.85;;;;;;;;;;4971420;28;20834;-61
2022/11/05 06:28:19;;;;;;;9.10;5.20;;;;;;;;;;4968779;28;20513;-61
2022/11/05 06:30:49;;;;;;;9.73;5.27;;;;;;;;;;4977475;28;20240;-61
2022/11/05 06:33:14;;;;;;;8.40;5.00;;;;;;;;;;4975229;28;20697;-61
2022/11/05 06:35:39;;;;;;;7.63;4.90;;;;;;;;;;4975533;28;20217;-61
2022/11/05 06:38:04;;;;;;;7.33;4.30;;;;;;;;;;4977613;28;20221;-61
2022/11/05 06:40:30;;;;;;;9.68;4.95;;;;;;;;;;4977015;28;20228;-61
2022/11/05 06:42:55;;;;;;;8.73;5.33;;;;;;;;;;4977281;28;20682;-61
2022/11/05 06:45:20;;;;;;;9.93;5.87;;;;;;;;;;4972975;28;20221;-61
2022/11/05 06:47:46;;;;;;;10.05;5.68;;;;;;;;;;4971368;28;20240;-61
2022/11/05 06:50:11;;;;;;;9.93;5.40;;;;;;;;;;4969723;28;20787;-61
2022/11/05 06:52:36;;;;;;;9.27;5.60;;;;;;;;;;4974970;28;20221;-61
2022/11/05 06:55:02;;;;;;;11.63;5.33;;;;;;;;;;4977460;28;20645;-62
2022/11/05 06:57:27;;;;;;;8.63;5.25;;;;;;;;;;4980156;28;20248;-61
2022/11/05 06:59:52;;;;;;;9.47;5.00;;;;;;;;;;4948044;28;1096384;-61
2022/11/05 07:02:18;;;;;;;9.20;6.10;;;;;;;;;;4988841;28;20220;-64
2022/11/05 07:04:43;;;;;;;9.00;5.23;;;;;;;;;;4989147;28;20209;-64
2022/11/05 07:07:08;;;;;;;10.60;5.07;;;;;;;;;;4988721;28;20229;-63
2022/11/05 07:09:37;;;;;;;10.07;6.20;;;;;;;;;;5001973;28;20908;-62
2022/11/05 07:12:03;;;;;;;12.60;5.50;;;;;;;;;;4987401;28;20460;-62
2022/11/05 07:14:28;;;;;;;8.35;6.10;;;;;;;;;;4987010;28;20946;-62
2022/11/05 07:16:55;;;;;;;9.57;6.18;;;;;;;;;;4988459;28;20212;-63
2022/11/05 07:19:20;;;;;;;9.82;5.70;;;;;;;;;;5001601;28;20263;-62
2022/11/05 07:21:47;;;;;;;11.20;5.77;;;;;;;;;;4988267;28;20208;-62
2022/11/05 07:24:14;;;;;;;12.10;6.90;;;;;;;;;;4983911;28;20217;-62
2022/11/05 07:26:39;;;;;;;10.70;6.03;;;;;;;;;;4987820;28;20225;-63
2022/11/05 07:29:04;;;;;;;11.43;6.53;;;;;;;;;;4987901;28;20207;-63
2022/11/05 07:31:29;;;;;;;11.83;6.57;;;;;;;;;;4987748;28;20576;-63
2022/11/05 07:33:55;;;;;;;13.63;7.20;;;;;;;;;;4988892;28;20208;-63
2022/11/05 07:36:20;;;;;;;13.77;7.20;;;;;;;;;;5002901;28;20239;-63
2022/11/05 07:38:45;;;;;;;12.27;7.00;;;;;;;;;;4986572;28;20209;-63
2022/11/05 07:41:11;;;;;;;8.93;6.43;;;;;;;;;;4987338;28;20217;-62
2022/11/05 07:43:36;;;;;;;13.33;7.80;;;;;;;;;;4988127;28;20244;-63
2022/11/05 07:46:01;;;;;;;9.13;6.57;;;;;;;;;;4987281;28;20213;-63
2022/11/05 07:48:26;;;;;;;12.90;6.55;;;;;;;;;;4988086;28;20237;-62
2022/11/05 07:50:52;;;;;;;14.18;7.45;;;;;;;;;;4988036;28;20259;-62
2022/11/05 07:53:18;;;;;;;11.63;6.90;;;;;;;;;;4986563;28;20240;-62
2022/11/05 07:55:44;;;;;;;12.30;7.47;;;;;;;;;;4988247;28;20290;-62
2022/11/05 07:58:10;;;;;;;14.73;8.57;;;;;;;;;;4987569;28;20232;-61
2022/11/05 08:00:35;;;;;;;13.60;7.60;;;;;;;;;;4987701;28;20209;-62
2022/11/05 08:03:03;;;;;;;11.45;6.65;;;;;;;;;;4987654;28;20209;-62
2022/11/05 08:05:28;;;;;;;12.23;7.00;;;;;;;;;;4987426;28;20669;-62
2022/11/05 08:07:54;;;;;;;12.60;7.00;;;;;;;;;;4986148;28;20440;-64
2022/11/05 08:10:19;;;;;;;11.23;7.22;;;;;;;;;;4987186;28;20615;-64
2022/11/05 08:12:45;;;;;;;13.30;6.72;;;;;;;;;;5002661;28;20209;-65
2022/11/05 08:15:10;;;;;;;10.77;6.53;;;;;;;;;;4987101;28;20676;-64
2022/11/05 08:17:35;;;;;;;12.90;5.97;;;;;;;;;;4988462;28;20216;-64
2022/11/05 08:20:00;;;;;;;13.80;6.90;;;;;;;;;;4987960;28;20673;-63
2022/11/05 08:22:26;;;;;;;10.77;6.70;;;;;;;;;;4987612;28;20581;-64
2022/11/05 08:24:51;;;;;;;12.88;7.18;;;;;;;;;;4988639;28;20217;-64
2022/11/05 08:27:16;;;;;;;11.82;6.43;;;;;;;;;;4992075;28;20221;-64
2022/11/05 08:29:41;;;;;;;13.48;7.00;;;;;;;;;;4992301;28;20232;-64
2022/11/05 08:32:07;;;;;;;12.38;7.13;;;;;;;;;;4992261;28;20215;-64
2022/11/05 08:34:32;;;;;;;11.38;6.80;;;;;;;;;;4992562;28;20217;-64
2022/11/05 08:36:59;;;;;;;12.95;7.00;;;;;;;;;;5008188;28;20213;-64
2022/11/05 08:39:24;;;;;;;12.85;7.13;;;;;;;;;;4992589;28;20304;-64
2022/11/05 08:41:49;;;;;;;13.80;7.55;;;;;;;;;;4992172;28;20851;-64
2022/11/05 08:44:15;;;;;;;12.77;6.93;;;;;;;;;;5007787;28;20263;-64
2022/11/05 08:46:40;;;;;;;14.32;7.57;;;;;;;;;;4993061;28;20217;-63
2022/11/05 08:49:05;;;;;;;12.18;7.55;;;;;;;;;;4991951;28;20220;-64
2022/11/05 08:51:30;;;;;;;11.18;7.40;;;;;;;;;;4993128;28;20216;-64
2022/11/05 08:53:56;;;;;;;13.27;6.22;;;;;;;;;;4992802;28;20224;-64
2022/11/05 08:56:22;;;;;;;12.57;6.40;;;;;;;;;;4991183;28;20232;-64
2022/11/05 08:58:47;;;;;;;10.70;6.25;;;;;;;;;;4992743;28;20229;-64
2022/11/05 09:01:12;;;;;;;10.23;6.40;;;;;;;;;;4992660;28;20267;-64
2022/11/05 09:03:38;;;;;;;10.48;6.32;;;;;;;;;;4992189;28;20216;-64
2022/11/05 09:06:03;;;;;;;12.65;5.80;;;;;;;;;;4992453;28;20684;-64
2022/11/05 09:08:28;;;;;;;11.00;5.78;;;;;;;;;;4992989;28;20227;-64
2022/11/05 09:10:53;;;;;;;9.55;5.05;;;;;;;;;;4991281;28;20209;-64
2022/11/05 09:13:19;;;;;;;7.80;5.00;;;;;;;;;;4991963;28;20225;-64
2022/11/05 09:15:44;;;;;;;10.43;5.03;;;;;;;;;;4993027;28;20673;-66
2022/11/05 09:18:10;;;;;;;11.23;5.45;;;;;;;;;;5006327;28;20205;-64
2022/11/05 09:20:36;;;;;;;9.85;5.03;;;;;;;;;;5007975;28;20213;-64
2022/11/05 09:23:01;;;;;;;11.32;5.32;;;;;;;;;;4991984;28;20574;-63
2022/11/05 09:25:26;;;;;;;8.93;4.72;;;;;;;;;;4991380;28;20221;-64
2022/11/05 09:27:51;;;;;;;9.13;5.00;;;;;;;;;;4992088;28;20227;-63
2022/11/05 09:30:17;;;;;;;8.13;4.43;;;;;;;;;;4991741;28;20300;-63
2022/11/05 09:32:42;;;;;;;7.45;4.30;;;;;;;;;;4991458;28;20232;-64
2022/11/05 09:35:08;;;;;;;10.50;4.80;;;;;;;;;;4991674;28;20216;-63
2022/11/05 09:37:33;;;;;;;8.60;4.90;;;;;;;;;;5007322;28;20240;-63
2022/11/05 09:39:59;;;;;;;7.82;4.30;;;;;;;;;;4991143;28;20288;-63
2022/11/05 09:42:28;;;;;;;8.93;4.28;;;;;;;;;;4991553;28;20228;-64
2022/11/05 09:44:53;;;;;;;9.70;4.55;;;;;;;;;;4990733;28;20299;-63
2022/11/05 09:47:20;;;;;;;10.00;5.00;;;;;;;;;;4991261;28;20650;-63
2022/11/05 09:49:50;;;;;;;11.07;4.40;;;;;;;;;;4990265;28;21077;-64
2022/11/05 09:52:17;;;;;;;8.05;4.03;;;;;;;;;;4994377;28;20296;-64
2022/11/05 09:54:42;;;;;;;10.80;4.80;;;;;;;;;;5010692;28;20201;-64
2022/11/05 09:57:10;;;;;;;11.15;4.40;;;;;;;;;;4994749;28;20632;-63
2022/11/05 09:59:46;;;;;;;8.48;4.15;;;;;;;;;;5009584;28;20229;-63
2022/11/05 10:02:16;;;;;;;7.47;3.88;;;;;;;;;;5007256;28;20210;-63
2022/11/05 10:04:41;;;;;;;7.68;4.20;;;;;;;;;;4976459;28;20217;-64
2022/11/05 10:07:06;;;;;;;6.88;3.90;;;;;;;;;;4990265;28;20233;-64
2022/11/05 10:09:35;;;;;;;8.00;4.13;;;;;;;;;;4998073;28;20201;-64
2022/11/05 10:12:03;;;;;;;7.40;3.65;;;;;;;;;;5010575;28;20259;-64
2022/11/05 10:14:29;;;;;;;6.40;3.38;;;;;;;;;;4974637;28;20350;-64
2022/11/05 10:16:59;;;;;;;8.13;3.80;;;;;;;;;;4990764;28;20206;-64
2022/11/05 10:19:27;;;;;;;8.02;4.10;;;;;;;;;;4994768;28;20649;-65
2022/11/05 10:21:53;;;;;;;7.72;3.80;;;;;;;;;;5010012;28;20227;-64
2022/11/05 10:24:19;;;;;;;7.80;4.00;;;;;;;;;;5010038;28;20209;-65
2022/11/05 10:26:45;;;;;;;10.55;4.25;;;;;;;;;;5009639;28;20221;-65
2022/11/05 10:29:11;;;;;;;6.78;3.60;;;;;;;;;;5006049;28;20220;-65
2022/11/05 10:31:37;;;;;;;8.77;3.97;;;;;;;;;;5010044;28;20216;-65
2022/11/05 10:34:03;;;;;;;8.10;4.03;;;;;;;;;;5009392;28;20206;-65
2022/11/05 10:36:30;;;;;;;8.48;4.22;;;;;;;;;;5009387;28;20212;-65
2022/11/05 10:38:57;;;;;;;7.55;3.95;;;;;;;;;;5009682;28;20205;-65
2022/11/05 10:41:23;;;;;;;8.77;3.97;;;;;;;;;;5008297;28;20675;-64
2022/11/05 10:43:49;;;;;;;10.20;4.65;;;;;;;;;;4994235;28;20292;-63
2022/11/05 10:46:20;;;;;;;10.85;4.15;;;;;;;;;;5008927;28;20240;-65
2022/11/05 10:48:49;;;;;;;7.68;4.35;;;;;;;;;;4991881;28;20240;-65
2022/11/05 10:51:14;;;;;;;9.02;4.32;;;;;;;;;;5004931;28;20577;-63
2022/11/05 10:53:40;;;;;;;8.43;4.15;;;;;;;;;;4986901;28;20688;-63
2022/11/05 10:56:27;;;;;;;6.32;4.07;;;;;;;;;;4986828;28;20221;-64
2022/11/05 10:58:53;;;;;;;10.45;4.25;;;;;;;;;;4988742;28;20213;-63
2022/11/05 11:01:19;;;;;;;9.68;4.10;;;;;;;;;;4987670;28;20224;-63
2022/11/05 11:03:46;;;;;;;6.97;4.00;;;;;;;;;;4985898;28;20216;-64
2022/11/05 11:06:12;;;;;;;12.15;4.15;;;;;;;;;;4973954;28;20268;-63
2022/11/05 11:08:37;;;;;;;7.72;4.10;;;;;;;;;;4988928;28;20239;-63
2022/11/05 11:11:04;;;;;;;8.00;4.45;;;;;;;;;;4988256;28;20642;-63
2022/11/05 11:13:49;;;;;;;6.18;3.95;;;;;;;;;;5004039;28;20224;-64
2022/11/05 11:16:15;;;;;;;12.38;5.20;;;;;;;;;;4988048;28;20236;-63
2022/11/05 11:18:41;;;;;;;7.78;4.13;;;;;;;;;;4985623;28;20209;-62
2022/11/05 11:21:13;;;;;;;8.75;4.40;;;;;;;;;;5002921;28;20525;-63
2022/11/05 11:23:39;;;;;;;8.88;4.03;;;;;;;;;;4987860;28;20336;-64
2022/11/05 11:26:04;;;;;;;10.13;4.22;;;;;;;;;;4988178;28;20297;-64
2022/11/05 11:28:35;;;;;;;8.23;3.80;;;;;;;;;;5003371;28;20301;-64
2022/11/05 11:31:07;;;;;;;8.52;4.20;;;;;;;;;;4986666;28;20573;-64
2022/11/05 11:33:33;;;;;;;9.77;4.13;;;;;;;;;;5003570;28;20434;-64
2022/11/05 11:35:58;;;;;;;8.02;4.00;;;;;;;;;;5003198;28;20251;-64
2022/11/05 11:38:23;;;;;;;9.02;4.10;;;;;;;;;;5002888;28;20661;-64
2022/11/05 11:40:49;;;;;;;7.13;3.92;;;;;;;;;;5004243;28;20703;-64
2022/11/05 11:43:17;;;;;;;11.23;4.43;;;;;;;;;;5003357;28;20221;-64
2022/11/05 11:46:03;;;;;;;8.40;3.67;;;;;;;;;;5002948;28;20300;-64
2022/11/05 11:48:28;;;;;;;10.93;3.88;;;;;;;;;;4980198;28;20229;-64
2022/11/05 11:50:53;;;;;;;8.00;4.15;;;;;;;;;;4988173;28;20645;-64
2022/11/05 11:53:19;;;;;;;11.05;3.97;;;;;;;;;;5002179;28;20209;-64
2022/11/05 11:55:53;;;;;;;9.18;4.30;;;;;;;;;;4988352;28;20263;-64
2022/11/05 11:58:18;;;;;;;9.90;4.40;;;;;;;;;;4987621;28;20244;-64
2022/11/05 12:00:44;;;;;;;8.68;3.83;;;;;;;;;;5002468;28;20632;-64
2022/11/05 12:03:12;;;;;;;6.43;3.38;;;;;;;;;;5003226;28;20315;-64
2022/11/05 12:05:39;;;;;;;6.35;3.20;;;;;;;;;;5002750;28;20216;-64
2022/11/05 12:08:04;;;;;;;7.68;3.70;;;;;;;;;;5002608;28;20221;-65
2022/11/05 12:10:34;;;;;;;8.20;3.80;;;;;;;;;;4988305;28;20565;-64
2022/11/05 12:13:15;;;;;;;9.27;4.25;;;;;;;;;;4986859;28;20221;-64
2022/11/05 12:15:59;;;;;;;8.85;3.47;;;;;;;;;;4988393;28;20355;-64
2022/11/05 12:18:31;;;;;;;9.13;3.50;;;;;;;;;;4987614;28;20217;-64
2022/11/05 12:21:05;;;;;;;7.60;3.53;;;;;;;;;;4986945;28;20303;-64
2022/11/05 12:23:35;;;;;;;9.73;3.90;;;;;;;;;;4995128;28;20209;-64
2022/11/05 12:26:13;;;;;;;8.02;3.30;;;;;;;;;;5002709;28;20221;-64
2022/11/05 12:28:53;;;;;;;7.10;3.42;;;;;;;;;;4980720;28;20216;-64
2022/11/05 12:31:34;;;;;;;11.07;3.88;;;;;;;;;;4987190;28;20209;-64
2022/11/05 12:34:03;;;;;;;10.88;3.50;;;;;;;;;;4987148;28;20255;-64
2022/11/05 12:36:34;;;;;;;6.75;3.58;;;;;;;;;;4994293;28;20621;-64
2022/11/05 12:39:07;;;;;;;6.80;3.83;;;;;;;;;;4987793;28;20250;-64
2022/11/05 12:41:33;;;;;;;8.05;3.92;;;;;;;;;;4986352;28;20219;-64
2022/11/05 12:44:11;;;;;;;6.65;3.22;;;;;;;;;;4986023;28;20356;-64
2022/11/05 12:46:41;;;;;;;8.63;3.88;;;;;;;;;;4987000;28;20224;-64
2022/11/05 12:49:10;;;;;;;11.02;3.88;;;;;;;;;;4986345;28;20224;-64
2022/11/05 12:52:14;;;;;;;7.38;3.53;;;;;;;;;;4987235;28;20213;-64
2022/11/05 12:54:50;;;;;;;8.98;3.58;;;;;;;;;;4986987;28;20209;-64
2022/11/05 12:57:16;;;;;;;7.40;3.80;;;;;;;;;;5001966;28;20264;-64
2022/11/05 12:59:45;;;;;;;8.60;3.97;;;;;;;;;;5022809;28;20231;-64
2022/11/05 13:02:21;;;;;;;7.78;3.78;;;;;;;;;;5025000;28;20226;-64
2022/11/05 13:04:49;;;;;;;9.68;3.53;;;;;;;;;;5029296;28;20214;-64
2022/11/05 13:07:15;;;;;;;7.35;3.53;;;;;;;;;;5045703;28;20230;-64
2022/11/05 13:09:44;;;;;;;7.88;3.65;;;;;;;;;;5017911;28;20205;-64
2022/11/05 13:12:10;;;;;;;7.72;3.17;;;;;;;;;;5028001;28;20208;-64
2022/11/05 13:14:39;;;;;;;8.25;4.20;;;;;;;;;;5014475;28;20212;-64
2022/11/05 13:17:08;;;;;;;6.13;3.20;;;;;;;;;;5029399;28;20212;-64
2022/11/05 13:19:38;;;;;;;9.15;4.18;;;;;;;;;;5031081;28;20216;-64
2022/11/05 13:22:08;;;;;;;11.18;4.45;;;;;;;;;;5030163;28;20602;-64
2022/11/05 13:24:35;;;;;;;9.30;3.88;;;;;;;;;;5032120;28;20570;-64
2022/11/05 13:27:03;;;;;;;10.77;4.22;;;;;;;;;;5034163;28;20242;-64
2022/11/05 13:29:37;;;;;;;9.18;3.88;;;;;;;;;;5028005;28;20227;-64
2022/11/05 13:32:08;;;;;;;10.52;4.30;;;;;;;;;;5013342;28;20216;-65
2022/11/05 13:34:33;;;;;;;11.73;4.28;;;;;;;;;;5013365;28;20227;-64
2022/11/05 13:39:50;;;;;;;7.72;4.10;;;;;;;;;;5032267;28;20563;-64
2022/11/05 13:42:17;;;;;;;10.85;4.57;;;;;;;;;;5004043;28;20234;-64
2022/11/05 13:44:46;;;;;;;9.15;4.53;;;;;;;;;;5003641;28;20220;-64
2022/11/05 13:47:12;;;;;;;9.00;4.45;;;;;;;;;;5009959;28;20648;-64
2022/11/05 13:49:51;;;;;;;11.27;4.88;;;;;;;;;;5004106;28;20223;-64
2022/11/05 13:52:17;;;;;;;8.32;3.92;;;;;;;;;;5003516;28;20220;-64
2022/11/05 13:54:48;;;;;;;10.05;4.82;;;;;;;;;;5003862;28;20708;-64
2022/11/05 13:57:25;;;;;;;9.13;4.82;;;;;;;;;;4996374;28;20295;-64
2022/11/05 14:00:00;;;;;;;11.05;4.85;;;;;;;;;;4975887;28;20657;-64
2022/11/05 14:02:27;;;;;;;11.43;5.18;;;;;;;;;;4977999;28;20471;-64
2022/11/05 14:04:54;;;;;;;9.02;5.30;;;;;;;;;;4984801;28;20696;-64
2022/11/05 14:07:27;;;;;;;8.88;4.57;;;;;;;;;;4983530;28;20233;-64
2022/11/05 14:09:54;;;;;;;10.15;4.57;;;;;;;;;;4984576;28;20894;-64
2022/11/05 14:12:32;;;;;;;10.05;4.95;;;;;;;;;;4982153;28;20221;-64
2022/11/05 14:15:00;;;;;;;10.80;5.13;;;;;;;;;;4983268;28;20217;-64
2022/11/05 14:17:26;;;;;;;9.30;4.57;;;;;;;;;;4981698;28;20439;-64
2022/11/05 14:20:02;;;;;;;12.38;5.80;;;;;;;;;;4975322;28;20228;-64
2022/11/05 14:22:36;;;;;;;9.25;5.05;;;;;;;;;;4988732;28;20220;-64
2022/11/05 14:25:24;;;;;;;11.85;6.07;;;;;;;;;;4997152;28;21220;-64
2022/11/05 14:27:50;;;;;;;9.70;5.32;;;;;;;;;;5003152;28;20235;-64
2022/11/05 14:30:34;;;;;;;10.05;5.18;;;;;;;;;;5003372;28;20275;-64
2022/11/05 14:33:14;;;;;;;9.10;5.30;;;;;;;;;;5008838;28;20227;-64
2022/11/05 14:35:40;;;;;;;10.82;5.70;;;;;;;;;;5008651;28;20208;-64
2022/11/05 14:38:05;;;;;;;10.23;5.60;;;;;;;;;;5007458;28;20209;-64
2022/11/05 14:40:30;;;;;;;11.05;5.25;;;;;;;;;;4985403;28;20222;-64
2022/11/05 14:42:56;;;;;;;9.43;5.38;;;;;;;;;;4966027;28;20225;-64
2022/11/05 14:45:25;;;;;;;13.75;5.55;;;;;;;;;;4969820;28;20232;-64
2022/11/05 14:47:52;;;;;;;8.68;5.03;;;;;;;;;;4998294;28;20827;-64
2022/11/05 14:50:18;;;;;;;11.05;6.10;;;;;;;;;;4987583;28;20275;-64
2022/11/05 14:52:51;;;;;;;12.00;5.88;;;;;;;;;;4988237;28;20210;-64
2022/11/05 14:55:38;;;;;;;10.65;5.43;;;;;;;;;;4988107;28;20221;-64
2022/11/05 14:58:05;;;;;;;13.38;5.72;;;;;;;;;;4987401;28;20237;-64
2022/11/05 15:00:31;;;;;;;11.05;5.75;;;;;;;;;;4989199;28;20284;-64
2022/11/05 15:02:57;;;;;;;11.27;5.10;;;;;;;;;;4987928;28;20228;-64
2022/11/05 15:05:30;;;;;;;11.90;6.05;;;;;;;;;;4988185;28;20221;-64
2022/11/05 15:07:55;;;;;;;10.57;5.38;;;;;;;;;;4996017;28;20722;-64
2022/11/05 15:10:21;;;;;;;11.70;5.20;;;;;;;;;;4986404;28;20220;-64
2022/11/05 15:12:49;;;;;;;12.45;5.18;;;;;;;;;;5007270;28;20688;-64
2022/11/05 15:15:14;;;;;;;9.50;5.20;;;;;;;;;;4990887;28;20216;-64
2022/11/05 15:17:44;;;;;;;10.73;5.15;;;;;;;;;;5007521;28;20223;-64
2022/11/05 15:20:10;;;;;;;9.43;5.05;;;;;;;;;;5007082;28;20224;-64
2022/11/05 15:22:36;;;;;;;10.73;5.22;;;;;;;;;;4990199;28;20217;-64
2022/11/05 15:25:02;;;;;;;10.55;5.57;;;;;;;;;;5007891;28;20228;-64
2022/11/05 15:27:39;;;;;;;11.10;4.82;;;;;;;;;;5007214;28;20616;-64
2022/11/05 15:30:18;;;;;;;10.95;5.28;;;;;;;;;;5006009;28;20220;-64